sensor_id;sensor_type;location;lat;lon;timestamp;pressure;altitude;pressure_sealevel;temperature;humidity
33554;BME280;19885;42.208;24.952;2022-08-24T00:01:16;99481.94;;;21.35;94.40
33554;BME280;19885;42.208;24.952;2022-08-24T00:03:43;99491.78;;;21.31;94.83
33554;BME280;19885;42.208;24.952;2022-08-24T00:06:13;99484.81;;;21.28;94.76
33554;BME280;19885;42.208;24.952;2022-08-24T00:08:40;99488.41;;;21.27;95.08
33554;BME280;19885;42.208;24.952;2022-08-24T00:11:06;99498.34;;;21.22;95.18
33554;BME280;19885;42.208;24.952;2022-08-24T00:13:33;99505.50;;;21.20;95.85
33554;BME280;19885;42.208;24.952;2022-08-24T00:15:59;99503.78;;;21.19;95.40
33554;BME280;19885;42.208;24.952;2022-08-24T00:18:24;99505.78;;;21.35;93.83
33554;BME280;19885;42.208;24.952;2022-08-24T00:20:50;99506.91;;;21.29;92.24
33554;BME280;19885;42.208;24.952;2022-08-24T00:23:16;99519.25;;;21.30;92.74
33554;BME280;19885;42.208;24.952;2022-08-24T00:25:42;99520.22;;;21.27;93.02
33554;BME280;19885;42.208;24.952;2022-08-24T00:28:07;99510.72;;;21.22;93.26
33554;BME280;19885;42.208;24.952;2022-08-24T00:30:36;99522.41;;;21.18;93.58
33554;BME280;19885;42.208;24.952;2022-08-24T00:33:02;99522.00;;;21.07;93.39
33554;BME280;19885;42.208;24.952;2022-08-24T00:35:28;99471.09;;;20.77;93.39
33554;BME280;19885;42.208;24.952;2022-08-24T00:37:54;99529.19;;;21.03;93.65
33554;BME280;19885;42.208;24.952;2022-08-24T00:40:31;99516.91;;;21.01;93.67
33554;BME280;19885;42.208;24.952;2022-08-24T00:43:01;99525.63;;;21.04;92.87
33554;BME280;19885;42.208;24.952;2022-08-24T00:45:30;99520.06;;;20.89;92.86
33554;BME280;19885;42.208;24.952;2022-08-24T00:48:06;99523.19;;;20.77;93.68
33554;BME280;19885;42.208;24.952;2022-08-24T00:50:48;99511.56;;;20.81;94.36
33554;BME280;19885;42.208;24.952;2022-08-24T00:53:32;99506.38;;;20.78;93.98
33554;BME280;19885;42.208;24.952;2022-08-24T00:56:03;99508.06;;;20.80;95.04
33554;BME280;19885;42.208;24.952;2022-08-24T00:58:36;99512.56;;;20.78;93.98
33554;BME280;19885;42.208;24.952;2022-08-24T01:01:05;99510.03;;;20.75;93.97
33554;BME280;19885;42.208;24.952;2022-08-24T01:03:33;99497.94;;;20.68;94.29
33554;BME280;19885;42.208;24.952;2022-08-24T01:06:00;99519.38;;;20.62;94.76
33554;BME280;19885;42.208;24.952;2022-08-24T01:08:26;99519.94;;;20.70;95.39
33554;BME280;19885;42.208;24.952;2022-08-24T01:10:58;99511.97;;;20.70;94.76
33554;BME280;19885;42.208;24.952;2022-08-24T01:13:26;99521.47;;;20.76;95.53
33554;BME280;19885;42.208;24.952;2022-08-24T01:15:55;99524.94;;;20.78;94.85
33554;BME280;19885;42.208;24.952;2022-08-24T01:18:23;99525.81;;;20.78;93.69
33554;BME280;19885;42.208;24.952;2022-08-24T01:21:24;99526.81;;;20.74;94.55
33554;BME280;19885;42.208;24.952;2022-08-24T01:23:57;99534.22;;;20.66;94.41
33554;BME280;19885;42.208;24.952;2022-08-24T01:28:56;99528.81;;;20.69;94.32
33554;BME280;19885;42.208;24.952;2022-08-24T01:31:25;99534.28;;;20.86;93.97
33554;BME280;19885;42.208;24.952;2022-08-24T01:33:51;99526.91;;;20.94;93.36
33554;BME280;19885;42.208;24.952;2022-08-24T01:36:23;99531.19;;;20.97;93.08
33554;BME280;19885;42.208;24.952;2022-08-24T01:38:54;99527.69;;;20.96;92.95
33554;BME280;19885;42.208;24.952;2022-08-24T01:41:22;99528.53;;;20.97;92.95
33554;BME280;19885;42.208;24.952;2022-08-24T01:43:47;99527.91;;;20.92;93.41
33554;BME280;19885;42.208;24.952;2022-08-24T01:46:14;99521.13;;;20.85;92.76
33554;BME280;19885;42.208;24.952;2022-08-24T01:48:42;99535.28;;;20.84;93.83
33554;BME280;19885;42.208;24.952;2022-08-24T01:51:07;99529.25;;;20.80;93.95
33554;BME280;19885;42.208;24.952;2022-08-24T01:53:33;99529.34;;;20.77;93.29
33554;BME280;19885;42.208;24.952;2022-08-24T01:55:58;99525.00;;;20.76;93.29
33554;BME280;19885;42.208;24.952;2022-08-24T01:58:24;99523.19;;;20.77;93.29
33554;BME280;19885;42.208;24.952;2022-08-24T02:00:49;99530.94;;;20.81;93.94
33554;BME280;19885;42.208;24.952;2022-08-24T02:03:15;99536.41;;;20.78;92.85
33554;BME280;19885;42.208;24.952;2022-08-24T02:05:43;99541.44;;;20.84;93.37
33554;BME280;19885;42.208;24.952;2022-08-24T02:08:08;99534.41;;;20.83;93.50
33554;BME280;19885;42.208;24.952;2022-08-24T02:10:34;99538.97;;;20.80;93.02
33554;BME280;19885;42.208;24.952;2022-08-24T02:13:01;99539.97;;;20.77;92.80
33554;BME280;19885;42.208;24.952;2022-08-24T02:15:29;99542.78;;;20.73;93.32
33554;BME280;19885;42.208;24.952;2022-08-24T02:17:56;99548.94;;;20.73;93.46
33554;BME280;19885;42.208;24.952;2022-08-24T02:20:27;99546.06;;;20.79;92.96
33554;BME280;19885;42.208;24.952;2022-08-24T02:22:57;99549.66;;;20.78;93.29
33554;BME280;19885;42.208;24.952;2022-08-24T02:25:23;99551.72;;;20.70;93.05
33554;BME280;19885;42.208;24.952;2022-08-24T02:27:49;99557.47;;;20.58;93.75
33554;BME280;19885;42.208;24.952;2022-08-24T02:30:15;99560.47;;;20.49;94.56
33554;BME280;19885;42.208;24.952;2022-08-24T02:32:41;99565.34;;;20.13;95.54
33554;BME280;19885;42.208;24.952;2022-08-24T02:35:12;99563.09;;;20.03;95.57
33554;BME280;19885;42.208;24.952;2022-08-24T02:37:38;99517.84;;;19.62;96.63
33554;BME280;19885;42.208;24.952;2022-08-24T02:40:04;99558.63;;;20.05;95.98
33554;BME280;19885;42.208;24.952;2022-08-24T02:42:32;99576.84;;;20.37;94.72
33554;BME280;19885;42.208;24.952;2022-08-24T02:44:59;99580.31;;;20.39;94.79
33554;BME280;19885;42.208;24.952;2022-08-24T02:47:25;99577.94;;;20.07;94.91
33554;BME280;19885;42.208;24.952;2022-08-24T02:49:50;99576.75;;;20.15;94.89
33554;BME280;19885;42.208;24.952;2022-08-24T02:52:16;99530.31;;;20.07;94.13
33554;BME280;19885;42.208;24.952;2022-08-24T02:54:41;99574.66;;;20.48;94.42
33554;BME280;19885;42.208;24.952;2022-08-24T02:57:09;99577.31;;;20.48;94.59
33554;BME280;19885;42.208;24.952;2022-08-24T02:59:35;99580.66;;;20.53;93.62
33554;BME280;19885;42.208;24.952;2022-08-24T03:02:00;99581.22;;;20.38;93.56
33554;BME280;19885;42.208;24.952;2022-08-24T03:04:26;99564.44;;;20.14;93.33
33554;BME280;19885;42.208;24.952;2022-08-24T03:06:52;99567.81;;;20.18;93.61
33554;BME280;19885;42.208;24.952;2022-08-24T03:09:17;99578.00;;;20.30;93.19
33554;BME280;19885;42.208;24.952;2022-08-24T03:11:43;99552.13;;;20.13;94.04
33554;BME280;19885;42.208;24.952;2022-08-24T03:14:08;99571.03;;;20.03;95.48
33554;BME280;19885;42.208;24.952;2022-08-24T03:16:34;99574.94;;;19.92;95.53
33554;BME280;19885;42.208;24.952;2022-08-24T03:19:00;99583.56;;;19.98;96.16
33554;BME280;19885;42.208;24.952;2022-08-24T03:21:26;99578.31;;;20.21;95.36
33554;BME280;19885;42.208;24.952;2022-08-24T03:23:52;99582.31;;;20.32;94.95
33554;BME280;19885;42.208;24.952;2022-08-24T03:26:18;99574.31;;;20.34;94.20
33554;BME280;19885;42.208;24.952;2022-08-24T03:28:44;99581.34;;;20.35;94.05
33554;BME280;19885;42.208;24.952;2022-08-24T03:31:10;99583.84;;;20.38;93.77
33554;BME280;19885;42.208;24.952;2022-08-24T03:33:39;99585.34;;;20.45;94.05
33554;BME280;19885;42.208;24.952;2022-08-24T03:36:08;99582.66;;;20.46;92.86
33554;BME280;19885;42.208;24.952;2022-08-24T03:38:33;99582.66;;;20.46;92.40
33554;BME280;19885;42.208;24.952;2022-08-24T03:41:02;99577.91;;;20.33;93.43
33554;BME280;19885;42.208;24.952;2022-08-24T03:43:30;99583.66;;;20.19;93.94
33554;BME280;19885;42.208;24.952;2022-08-24T03:46:14;99584.09;;;20.32;93.92
33554;BME280;19885;42.208;24.952;2022-08-24T03:48:44;99584.44;;;20.46;93.20
33554;BME280;19885;42.208;24.952;2022-08-24T03:51:18;99584.28;;;20.27;93.77
33554;BME280;19885;42.208;24.952;2022-08-24T03:53:46;99574.31;;;20.09;94.18
33554;BME280;19885;42.208;24.952;2022-08-24T03:56:15;99533.16;;;19.77;93.70
33554;BME280;19885;42.208;24.952;2022-08-24T03:58:42;99578.81;;;20.07;93.92
33554;BME280;19885;42.208;24.952;2022-08-24T04:01:12;99565.38;;;19.88;94.02
33554;BME280;19885;42.208;24.952;2022-08-24T04:03:39;99585.75;;;19.86;95.25
33554;BME280;19885;42.208;24.952;2022-08-24T04:06:08;99587.34;;;19.90;94.86
33554;BME280;19885;42.208;24.952;2022-08-24T04:08:35;99591.47;;;20.24;94.19
33554;BME280;19885;42.208;24.952;2022-08-24T04:11:08;99591.13;;;20.33;93.85
33554;BME280;19885;42.208;24.952;2022-08-24T04:13:36;99584.72;;;20.38;93.00
33554;BME280;19885;42.208;24.952;2022-08-24T04:16:18;99585.69;;;20.36;92.96
33554;BME280;19885;42.208;24.952;2022-08-24T04:18:45;99592.84;;;20.34;93.03
33554;BME280;19885;42.208;24.952;2022-08-24T04:21:19;99591.16;;;20.31;93.51
33554;BME280;19885;42.208;24.952;2022-08-24T04:23:46;99584.63;;;20.17;94.24
33554;BME280;19885;42.208;24.952;2022-08-24T04:26:12;99597.44;;;20.29;93.75
33554;BME280;19885;42.208;24.952;2022-08-24T04:28:37;99586.47;;;20.39;92.91
33554;BME280;19885;42.208;24.952;2022-08-24T04:31:06;99589.16;;;20.38;93.06
33554;BME280;19885;42.208;24.952;2022-08-24T04:33:37;99582.94;;;20.39;93.06
33554;BME280;19885;42.208;24.952;2022-08-24T04:36:07;99587.09;;;20.46;93.03
33554;BME280;19885;42.208;24.952;2022-08-24T04:38:36;99585.94;;;20.53;93.23
33554;BME280;19885;42.208;24.952;2022-08-24T04:41:04;99595.50;;;20.57;92.63
33554;BME280;19885;42.208;24.952;2022-08-24T04:43:30;99595.13;;;20.66;93.07
33554;BME280;19885;42.208;24.952;2022-08-24T04:45:56;99587.72;;;20.76;92.58
33554;BME280;19885;42.208;24.952;2022-08-24T04:48:22;99584.91;;;20.79;92.34
33554;BME280;19885;42.208;24.952;2022-08-24T04:50:47;99588.88;;;20.90;92.37
33554;BME280;19885;42.208;24.952;2022-08-24T04:53:15;99596.53;;;20.98;92.00
33554;BME280;19885;42.208;24.952;2022-08-24T04:55:48;99592.56;;;21.09;91.95
33554;BME280;19885;42.208;24.952;2022-08-24T04:58:15;99592.44;;;21.12;91.51
33554;BME280;19885;42.208;24.952;2022-08-24T05:00:42;99603.31;;;21.26;91.19
33554;BME280;19885;42.208;24.952;2022-08-24T05:03:09;99601.34;;;21.31;91.39
33554;BME280;19885;42.208;24.952;2022-08-24T05:05:42;99606.66;;;21.31;90.72
33554;BME280;19885;42.208;24.952;2022-08-24T05:08:09;99603.69;;;21.39;91.23
33554;BME280;19885;42.208;24.952;2022-08-24T05:10:41;99607.06;;;21.43;90.75
33554;BME280;19885;42.208;24.952;2022-08-24T05:13:07;99608.44;;;21.53;89.73
33554;BME280;19885;42.208;24.952;2022-08-24T05:15:34;99604.19;;;21.49;91.26
33554;BME280;19885;42.208;24.952;2022-08-24T05:18:00;99612.56;;;21.60;90.67
33554;BME280;19885;42.208;24.952;2022-08-24T05:20:26;99610.63;;;21.63;90.30
33554;BME280;19885;42.208;24.952;2022-08-24T05:22:52;99616.00;;;21.62;91.14
33554;BME280;19885;42.208;24.952;2022-08-24T05:25:19;99622.03;;;21.65;89.92
33554;BME280;19885;42.208;24.952;2022-08-24T05:27:44;99617.47;;;21.69;90.62
33554;BME280;19885;42.208;24.952;2022-08-24T05:30:10;99619.06;;;21.73;90.49
33554;BME280;19885;42.208;24.952;2022-08-24T05:32:36;99618.25;;;21.71;90.69
33554;BME280;19885;42.208;24.952;2022-08-24T05:35:03;99625.72;;;21.83;90.54
33554;BME280;19885;42.208;24.952;2022-08-24T05:37:30;99612.88;;;21.72;90.76
33554;BME280;19885;42.208;24.952;2022-08-24T05:39:56;99610.19;;;21.74;90.88
33554;BME280;19885;42.208;24.952;2022-08-24T05:42:21;99622.31;;;21.79;89.65
33554;BME280;19885;42.208;24.952;2022-08-24T05:44:47;99621.22;;;21.85;90.66
33554;BME280;19885;42.208;24.952;2022-08-24T05:47:12;99616.00;;;21.82;90.08
33554;BME280;19885;42.208;24.952;2022-08-24T05:49:38;99631.25;;;21.98;88.56
33554;BME280;19885;42.208;24.952;2022-08-24T05:52:04;99587.16;;;21.74;88.19
33554;BME280;19885;42.208;24.952;2022-08-24T05:54:29;99635.38;;;22.06;85.95
33554;BME280;19885;42.208;24.952;2022-08-24T05:56:57;99627.41;;;22.06;86.03
33554;BME280;19885;42.208;24.952;2022-08-24T05:59:28;99585.03;;;21.82;85.12
33554;BME280;19885;42.208;24.952;2022-08-24T06:01:54;99608.16;;;22.00;84.57
33554;BME280;19885;42.208;24.952;2022-08-24T06:04:20;99610.84;;;21.99;84.39
33554;BME280;19885;42.208;24.952;2022-08-24T06:06:45;99610.84;;;21.99;83.99
33554;BME280;19885;42.208;24.952;2022-08-24T06:09:11;99621.22;;;22.05;84.30
33554;BME280;19885;42.208;24.952;2022-08-24T06:11:38;99614.06;;;22.07;84.28
33554;BME280;19885;42.208;24.952;2022-08-24T06:14:11;99615.75;;;22.08;82.78
33554;BME280;19885;42.208;24.952;2022-08-24T06:16:41;99607.53;;;22.14;85.16
33554;BME280;19885;42.208;24.952;2022-08-24T06:57:26;99617.72;;;23.18;82.32
33554;BME280;19885;42.208;24.952;2022-08-24T07:00:04;99621.25;;;23.18;80.23
33554;BME280;19885;42.208;24.952;2022-08-24T07:02:54;99619.88;;;23.28;82.20
33554;BME280;19885;42.208;24.952;2022-08-24T07:05:22;99623.28;;;23.49;82.13
33554;BME280;19885;42.208;24.952;2022-08-24T07:07:48;99560.13;;;23.35;79.49
33554;BME280;19885;42.208;24.952;2022-08-24T07:10:13;99624.03;;;23.70;80.07
33554;BME280;19885;42.208;24.952;2022-08-24T07:12:39;99613.38;;;23.53;78.94
33554;BME280;19885;42.208;24.952;2022-08-24T07:15:04;99567.28;;;23.16;80.12
33554;BME280;19885;42.208;24.952;2022-08-24T07:17:33;99567.22;;;23.18;80.94
33554;BME280;19885;42.208;24.952;2022-08-24T07:19:58;99615.09;;;23.54;79.52
33554;BME280;19885;42.208;24.952;2022-08-24T07:22:23;99602.78;;;23.51;79.56
33554;BME280;19885;42.208;24.952;2022-08-24T07:24:49;99617.94;;;23.51;80.81
33554;BME280;19885;42.208;24.952;2022-08-24T07:27:14;99629.91;;;23.59;80.24
33554;BME280;19885;42.208;24.952;2022-08-24T07:29:40;99601.69;;;23.38;81.13
33554;BME280;19885;42.208;24.952;2022-08-24T07:32:06;99614.41;;;23.50;80.25
33554;BME280;19885;42.208;24.952;2022-08-24T07:34:31;99630.13;;;23.55;80.41
33554;BME280;19885;42.208;24.952;2022-08-24T07:36:57;99628.34;;;23.55;79.59
33554;BME280;19885;42.208;24.952;2022-08-24T07:39:26;99619.34;;;23.58;80.31
33554;BME280;19885;42.208;24.952;2022-08-24T07:41:52;99620.03;;;23.61;78.44
33554;BME280;19885;42.208;24.952;2022-08-24T07:44:18;99581.63;;;23.31;78.87
33554;BME280;19885;42.208;24.952;2022-08-24T07:46:43;99584.88;;;23.37;79.10
33554;BME280;19885;42.208;24.952;2022-08-24T07:49:09;99623.97;;;23.71;79.82
33554;BME280;19885;42.208;24.952;2022-08-24T07:51:36;99585.22;;;23.49;79.86
33554;BME280;19885;42.208;24.952;2022-08-24T07:54:03;99630.38;;;23.84;79.58
33554;BME280;19885;42.208;24.952;2022-08-24T07:56:30;99623.81;;;23.91;78.99
33554;BME280;19885;42.208;24.952;2022-08-24T07:58:56;99572.44;;;23.72;76.70
33554;BME280;19885;42.208;24.952;2022-08-24T08:01:22;99622.03;;;24.09;76.56
33554;BME280;19885;42.208;24.952;2022-08-24T08:03:48;99630.00;;;24.09;75.66
33554;BME280;19885;42.208;24.952;2022-08-24T08:06:15;99633.84;;;24.21;77.22
33554;BME280;19885;42.208;24.952;2022-08-24T08:08:43;99614.66;;;24.14;74.92
33554;BME280;19885;42.208;24.952;2022-08-24T08:11:09;99632.19;;;24.18;74.40
33554;BME280;19885;42.208;24.952;2022-08-24T08:13:36;99636.03;;;24.13;74.45
33554;BME280;19885;42.208;24.952;2022-08-24T08:16:02;99596.88;;;23.80;74.62
33554;BME280;19885;42.208;24.952;2022-08-24T08:18:28;99585.38;;;23.80;77.38
33554;BME280;19885;42.208;24.952;2022-08-24T08:20:56;99621.16;;;24.08;77.06
33554;BME280;19885;42.208;24.952;2022-08-24T08:23:25;99608.22;;;24.01;75.75
33554;BME280;19885;42.208;24.952;2022-08-24T08:26:15;99625.38;;;24.13;78.43
33554;BME280;19885;42.208;24.952;2022-08-24T08:28:41;99637.44;;;24.20;78.79
33554;BME280;19885;42.208;24.952;2022-08-24T08:31:06;99637.81;;;24.29;80.08
33554;BME280;19885;42.208;24.952;2022-08-24T08:33:32;99632.16;;;24.35;79.06
33554;BME280;19885;42.208;24.952;2022-08-24T08:36:20;99638.91;;;24.58;79.28
33554;BME280;19885;42.208;24.952;2022-08-24T08:38:47;99624.19;;;24.84;76.31
33554;BME280;19885;42.208;24.952;2022-08-24T08:43:53;99612.31;;;25.36;73.09
33554;BME280;19885;42.208;24.952;2022-08-24T08:49:12;99559.97;;;25.33;69.90
33554;BME280;19885;42.208;24.952;2022-08-24T08:57:44;99609.59;;;25.97;70.01
33554;BME280;19885;42.208;24.952;2022-08-24T09:00:17;99595.66;;;25.92;71.26
33554;BME280;19885;42.208;24.952;2022-08-24T09:11:18;99607.41;;;26.75;67.60
33554;BME280;19885;42.208;24.952;2022-08-24T09:27:39;99553.97;;;27.15;60.57
33554;BME280;19885;42.208;24.952;2022-08-24T09:30:10;99603.41;;;27.50;65.64
33554;BME280;19885;42.208;24.952;2022-08-24T09:54:32;99550.78;;;28.13;56.36
33554;BME280;19885;42.208;24.952;2022-08-24T09:59:55;99536.38;;;28.40;54.96
33554;BME280;19885;42.208;24.952;2022-08-24T10:02:44;99530.34;;;28.49;56.54
33554;BME280;19885;42.208;24.952;2022-08-24T10:13:47;99505.56;;;28.70;54.56
33554;BME280;19885;42.208;24.952;2022-08-24T10:16:41;99496.38;;;28.85;54.50
33554;BME280;19885;42.208;24.952;2022-08-24T10:25:15;99506.91;;;29.36;52.15
33554;BME280;19885;42.208;24.952;2022-08-24T10:33:52;99509.06;;;29.65;51.95
33554;BME280;19885;42.208;24.952;2022-08-24T10:36:43;99511.09;;;29.97;50.84
33554;BME280;19885;42.208;24.952;2022-08-24T10:39:32;99505.75;;;30.30;48.87
33554;BME280;19885;42.208;24.952;2022-08-24T10:53:49;99483.56;;;30.82;48.84
33554;BME280;19885;42.208;24.952;2022-08-24T10:56:21;99484.66;;;31.22;49.42
33554;BME280;19885;42.208;24.952;2022-08-24T11:01:31;99475.56;;;31.02;49.72
33554;BME280;19885;42.208;24.952;2022-08-24T11:06:35;99453.72;;;31.17;46.26
33554;BME280;19885;42.208;24.952;2022-08-24T11:11:43;99484.13;;;31.39;47.00
33554;BME280;19885;42.208;24.952;2022-08-24T11:14:29;99484.78;;;31.73;48.04
33554;BME280;19885;42.208;24.952;2022-08-24T11:17:15;99482.34;;;31.91;45.01
33554;BME280;19885;42.208;24.952;2022-08-24T11:19:42;99433.59;;;31.52;44.14
33554;BME280;19885;42.208;24.952;2022-08-24T11:22:31;99478.06;;;31.88;46.53
33554;BME280;19885;42.208;24.952;2022-08-24T11:25:01;99466.00;;;31.92;46.22
33554;BME280;19885;42.208;24.952;2022-08-24T11:27:40;99453.66;;;31.90;47.43
33554;BME280;19885;42.208;24.952;2022-08-24T11:30:11;99449.06;;;31.81;44.75
33554;BME280;19885;42.208;24.952;2022-08-24T11:32:46;99454.03;;;32.06;46.34
33554;BME280;19885;42.208;24.952;2022-08-24T11:35:36;99452.28;;;31.95;47.80
33554;BME280;19885;42.208;24.952;2022-08-24T11:40:36;99435.00;;;31.98;43.40
33554;BME280;19885;42.208;24.952;2022-08-24T11:44:07;99447.97;;;32.13;46.35
33554;BME280;19885;42.208;24.952;2022-08-24T11:49:29;99431.66;;;32.15;45.28
33554;BME280;19885;42.208;24.952;2022-08-24T11:52:10;99458.16;;;32.40;45.38
33554;BME280;19885;42.208;24.952;2022-08-24T11:55:03;99452.03;;;32.38;46.80
33554;BME280;19885;42.208;24.952;2022-08-24T11:57:44;99454.94;;;32.56;44.87
33554;BME280;19885;42.208;24.952;2022-08-24T12:00:20;99437.50;;;32.60;46.22
33554;BME280;19885;42.208;24.952;2022-08-24T12:05:51;99464.78;;;32.76;43.60
33554;BME280;19885;42.208;24.952;2022-08-24T12:08:22;99470.22;;;32.95;43.66
33554;BME280;19885;42.208;24.952;2022-08-24T12:11:20;99465.44;;;33.08;42.54
33554;BME280;19885;42.208;24.952;2022-08-24T12:14:04;99423.75;;;32.91;41.48
33554;BME280;19885;42.208;24.952;2022-08-24T12:17:02;99464.03;;;33.14;41.74
33554;BME280;19885;42.208;24.952;2022-08-24T12:19:52;99442.34;;;32.94;43.78
33554;BME280;19885;42.208;24.952;2022-08-24T12:22:20;99454.31;;;32.82;42.50
33554;BME280;19885;42.208;24.952;2022-08-24T12:24:53;99458.44;;;32.86;41.83
33554;BME280;19885;42.208;24.952;2022-08-24T12:27:24;99450.59;;;32.83;44.06
33554;BME280;19885;42.208;24.952;2022-08-24T12:30:07;99382.09;;;32.65;44.56
33554;BME280;19885;42.208;24.952;2022-08-24T12:32:53;99449.50;;;33.24;43.49
33554;BME280;19885;42.208;24.952;2022-08-24T12:46:10;99444.31;;;33.78;42.26
33554;BME280;19885;42.208;24.952;2022-08-24T12:49:00;99434.38;;;33.69;41.63
33554;BME280;19885;42.208;24.952;2022-08-24T12:55:12;99387.78;;;33.29;41.34
33554;BME280;19885;42.208;24.952;2022-08-24T13:00:21;99374.84;;;33.14;41.44
33554;BME280;19885;42.208;24.952;2022-08-24T13:02:58;99409.56;;;33.18;42.58
33554;BME280;19885;42.208;24.952;2022-08-24T13:05:45;99413.94;;;33.29;43.31
33554;BME280;19885;42.208;24.952;2022-08-24T13:08:30;99410.38;;;33.28;43.86
33554;BME280;19885;42.208;24.952;2022-08-24T13:11:04;99404.09;;;33.37;41.91
33554;BME280;19885;42.208;24.952;2022-08-24T13:13:44;99356.81;;;33.04;41.96
33554;BME280;19885;42.208;24.952;2022-08-24T13:16:10;99394.75;;;33.32;42.45
33554;BME280;19885;42.208;24.952;2022-08-24T13:19:17;99399.13;;;33.33;41.26
33554;BME280;19885;42.208;24.952;2022-08-24T13:22:35;99382.25;;;33.21;41.05
33554;BME280;19885;42.208;24.952;2022-08-24T13:25:37;99327.50;;;32.90;40.87
33554;BME280;19885;42.208;24.952;2022-08-24T13:32:37;99385.94;;;33.01;43.37
33554;BME280;19885;42.208;24.952;2022-08-24T13:40:52;99326.38;;;32.93;42.67
33554;BME280;19885;42.208;24.952;2022-08-24T13:43:32;99383.94;;;33.32;42.17
33554;BME280;19885;42.208;24.952;2022-08-24T13:51:48;99371.69;;;32.99;45.07
33554;BME280;19885;42.208;24.952;2022-08-24T13:59:54;99326.75;;;31.82;45.71
33554;BME280;19885;42.208;24.952;2022-08-24T14:02:49;99367.25;;;31.91;45.74
33554;BME280;19885;42.208;24.952;2022-08-24T14:05:36;99380.31;;;31.65;47.83
33554;BME280;19885;42.208;24.952;2022-08-24T14:13:48;99379.44;;;31.35;49.73
33554;BME280;19885;42.208;24.952;2022-08-24T14:19:48;99380.13;;;30.95;49.06
33554;BME280;19885;42.208;24.952;2022-08-24T14:25:34;99357.97;;;31.33;48.98
33554;BME280;19885;42.208;24.952;2022-08-24T14:35:40;99358.00;;;31.84;47.96
33554;BME280;19885;42.208;24.952;2022-08-24T14:46:29;99320.06;;;31.76;46.23
33554;BME280;19885;42.208;24.952;2022-08-24T14:54:58;99345.00;;;31.99;45.07
33554;BME280;19885;42.208;24.952;2022-08-24T15:10:26;99337.69;;;31.50;45.36
33554;BME280;19885;42.208;24.952;2022-08-24T15:15:29;99301.66;;;31.00;46.22
33554;BME280;19885;42.208;24.952;2022-08-24T15:18:03;99346.63;;;31.30;46.06
33554;BME280;19885;42.208;24.952;2022-08-24T15:26:49;99352.56;;;31.03;47.93
33554;BME280;19885;42.208;24.952;2022-08-24T15:29:22;99360.97;;;30.89;45.88
33554;BME280;19885;42.208;24.952;2022-08-24T15:32:02;99361.63;;;30.70;47.75
33554;BME280;19885;42.208;24.952;2022-08-24T15:34:49;99369.69;;;30.70;47.99
33554;BME280;19885;42.208;24.952;2022-08-24T15:37:37;99373.00;;;30.63;49.48
33554;BME280;19885;42.208;24.952;2022-08-24T15:40:20;99372.97;;;30.74;46.98
33554;BME280;19885;42.208;24.952;2022-08-24T15:42:48;99367.34;;;30.77;46.90
33554;BME280;19885;42.208;24.952;2022-08-24T15:45:16;99371.53;;;30.70;47.38
33554;BME280;19885;42.208;24.952;2022-08-24T15:47:45;99374.13;;;30.60;46.30
33554;BME280;19885;42.208;24.952;2022-08-24T15:50:40;99381.28;;;30.50;47.13
33554;BME280;19885;42.208;24.952;2022-08-24T15:58:40;99363.72;;;30.13;49.40
33554;BME280;19885;42.208;24.952;2022-08-24T16:04:06;99396.25;;;30.10;49.24
33554;BME280;19885;42.208;24.952;2022-08-24T16:09:06;99400.88;;;29.97;48.12
33554;BME280;19885;42.208;24.952;2022-08-24T16:11:42;99399.41;;;29.93;48.90
33554;BME280;19885;42.208;24.952;2022-08-24T16:17:34;99404.81;;;29.82;50.57
33554;BME280;19885;42.208;24.952;2022-08-24T16:20:09;99406.59;;;29.70;48.19
33554;BME280;19885;42.208;24.952;2022-08-24T16:22:38;99413.78;;;29.47;50.51
33554;BME280;19885;42.208;24.952;2022-08-24T16:25:28;99377.75;;;29.04;50.41
33554;BME280;19885;42.208;24.952;2022-08-24T16:28:05;99430.84;;;29.35;51.01
33554;BME280;19885;42.208;24.952;2022-08-24T16:30:55;99429.13;;;29.34;51.22
33554;BME280;19885;42.208;24.952;2022-08-24T16:36:08;99418.81;;;29.17;53.33
33554;BME280;19885;42.208;24.952;2022-08-24T16:38:35;99406.31;;;29.05;53.54
33554;BME280;19885;42.208;24.952;2022-08-24T16:41:04;99429.06;;;29.12;52.81
33554;BME280;19885;42.208;24.952;2022-08-24T16:43:32;99415.44;;;28.91;53.27
33554;BME280;19885;42.208;24.952;2022-08-24T16:45:59;99423.41;;;28.80;54.43
33554;BME280;19885;42.208;24.952;2022-08-24T16:48:25;99379.94;;;28.52;52.66
33554;BME280;19885;42.208;24.952;2022-08-24T16:50:52;99422.97;;;28.63;53.95
33554;BME280;19885;42.208;24.952;2022-08-24T16:53:17;99426.28;;;28.66;54.41
33554;BME280;19885;42.208;24.952;2022-08-24T16:55:43;99424.34;;;28.56;54.96
33554;BME280;19885;42.208;24.952;2022-08-24T16:58:09;99440.50;;;28.43;57.33
33554;BME280;19885;42.208;24.952;2022-08-24T17:00:35;99404.75;;;28.19;54.75
33554;BME280;19885;42.208;24.952;2022-08-24T17:03:01;99419.44;;;28.13;56.91
33554;BME280;19885;42.208;24.952;2022-08-24T17:05:27;99399.88;;;28.00;57.96
33554;BME280;19885;42.208;24.952;2022-08-24T17:07:54;99437.34;;;28.13;56.55
33554;BME280;19885;42.208;24.952;2022-08-24T17:10:20;99457.44;;;28.07;56.32
33554;BME280;19885;42.208;24.952;2022-08-24T17:12:48;99478.31;;;28.15;56.95
33554;BME280;19885;42.208;24.952;2022-08-24T17:15:13;99470.59;;;28.10;57.92
33554;BME280;19885;42.208;24.952;2022-08-24T17:17:40;99482.63;;;28.05;57.98
33554;BME280;19885;42.208;24.952;2022-08-24T17:20:09;99477.75;;;27.97;58.51
33554;BME280;19885;42.208;24.952;2022-08-24T17:22:35;99459.34;;;27.80;57.64
33554;BME280;19885;42.208;24.952;2022-08-24T17:25:01;99468.03;;;27.84;57.47
33554;BME280;19885;42.208;24.952;2022-08-24T17:27:30;99477.22;;;27.92;57.96
33554;BME280;19885;42.208;24.952;2022-08-24T17:29:58;99471.13;;;27.78;59.21